Time;durP1;ratioP1;P1;durP2;ratioP2;P2;SDS_P1;SDS_P2;PMS_P1;PMS_P2;Temp;Humidity;BMP_temperature;BMP_pressure;BME280_temperature;BME280_humidity;BME280_pressure;Samples;Min_cycle;Max_cycle;Signal;HPM_P1;HPM_P2
2023/06/17 00:01:04;;;;;;;5.40;5.00;;;26.50;37.20;;;;;;5024512;28;20194;-48
2023/06/17 00:03:30;;;;;;;6.80;5.83;;;26.50;37.00;;;;;;5009373;28;20653;-48
2023/06/17 00:05:55;;;;;;;4.93;4.53;;;26.50;37.10;;;;;;5024761;28;20439;-45
2023/06/17 00:08:21;;;;;;;6.27;5.70;;;26.50;37.20;;;;;;5017931;28;20237;-46
2023/06/17 00:10:46;;;;;;;6.73;6.13;;;26.50;37.20;;;;;;5028093;28;20200;-46
2023/06/17 00:13:18;;;;;;;6.07;5.60;;;26.40;37.40;;;;;;5010135;28;20305;-47
2023/06/17 00:15:47;;;;;;;5.27;4.77;;;26.40;37.50;;;;;;5016587;28;20216;-46
2023/06/17 00:18:13;;;;;;;6.80;6.23;;;26.40;37.60;;;;;;5010042;28;20433;-46
2023/06/17 00:20:39;;;;;;;9.50;5.00;;;26.40;37.50;;;;;;5019220;28;20440;-46
2023/06/17 00:23:06;;;;;;;6.40;5.83;;;26.30;37.70;;;;;;5021233;28;21178;-46
2023/06/17 00:25:32;;;;;;;7.07;6.47;;;26.20;37.90;;;;;;5022720;28;20201;-49
2023/06/17 00:27:57;;;;;;;6.00;5.50;;;26.00;38.10;;;;;;5022975;28;20495;-46
2023/06/17 00:30:23;;;;;;;6.00;5.50;;;25.90;38.30;;;;;;5029154;28;20197;-46
2023/06/17 00:32:48;;;;;;;5.50;5.00;;;25.90;38.50;;;;;;5021413;28;20251;-49
2023/06/17 00:35:14;;;;;;;5.80;5.17;;;25.90;38.60;;;;;;5014090;28;20189;-45
2023/06/17 00:37:39;;;;;;;5.63;5.23;;;25.90;38.80;;;;;;5027656;28;20204;-46
2023/06/17 00:40:07;;;;;;;5.60;5.10;;;25.90;38.70;;;;;;5026418;28;20201;-45
2023/06/17 00:42:34;;;;;;;6.43;5.93;;;25.90;38.70;;;;;;5019524;28;20190;-48
2023/06/17 00:45:00;;;;;;;6.90;6.30;;;25.90;38.70;;;;;;5022071;28;20452;-49
2023/06/17 00:47:25;;;;;;;6.00;5.13;;;25.90;38.40;;;;;;5022041;28;20843;-48
2023/06/17 00:49:53;;;;;;;5.07;4.67;;;26.00;38.60;;;;;;5026837;28;20222;-49
2023/06/17 00:52:19;;;;;;;5.27;4.87;;;25.90;38.60;;;;;;5026050;28;20205;-47
2023/06/17 00:54:45;;;;;;;6.37;5.77;;;26.00;38.60;;;;;;5023188;28;20509;-51
2023/06/17 00:57:14;;;;;;;5.93;5.43;;;26.00;38.70;;;;;;5024538;28;20448;-47
2023/06/17 00:59:43;;;;;;;5.40;5.00;;;25.90;38.70;;;;;;5024961;28;20190;-46
2023/06/17 01:02:10;;;;;;;5.63;5.23;;;25.70;38.90;;;;;;5028140;28;20446;-50
2023/06/17 01:04:38;;;;;;;7.30;5.80;;;25.60;39.40;;;;;;5025372;28;21092;-48
2023/06/17 01:07:24;;;;;;;6.40;5.80;;;25.60;39.50;;;;;;5027094;28;20475;-52
2023/06/17 01:10:01;;;;;;;6.20;5.70;;;25.60;39.30;;;;;;5023960;28;20444;-51
2023/06/17 01:12:28;;;;;;;7.43;6.60;;;25.60;39.30;;;;;;5025722;28;20442;-48
2023/06/17 01:14:57;;;;;;;6.07;5.57;;;25.60;39.30;;;;;;5025987;28;20537;-50
2023/06/17 01:17:24;;;;;;;6.60;6.07;;;25.60;39.30;;;;;;5031389;28;20969;-51
2023/06/17 01:19:51;;;;;;;5.90;5.37;;;25.60;39.30;;;;;;5028000;28;21025;-51
2023/06/17 01:22:17;;;;;;;6.30;5.73;;;25.60;39.40;;;;;;5024551;28;20451;-51
2023/06/17 01:24:46;;;;;;;7.73;5.73;;;25.50;39.30;;;;;;5023444;28;20446;-51
2023/06/17 01:27:12;;;;;;;5.43;4.80;;;25.50;39.50;;;;;;5012105;28;21049;-52
2023/06/17 01:29:38;;;;;;;6.10;5.67;;;25.50;39.50;;;;;;5023550;28;20966;-47
2023/06/17 01:32:05;;;;;;;6.17;5.67;;;25.40;39.60;;;;;;5029216;28;20467;-52
2023/06/17 01:34:49;;;;;;;6.00;5.50;;;25.40;39.60;;;;;;5023382;28;20190;-53
2023/06/17 01:37:37;;;;;;;6.47;5.87;;;25.40;39.90;;;;;;5030185;28;20447;-52
2023/06/17 01:40:06;;;;;;;6.13;5.63;;;25.00;40.80;;;;;;5025504;28;20465;-50
2023/06/17 01:42:35;;;;;;;6.20;5.70;;;24.50;41.60;;;;;;5028320;28;20459;-50
2023/06/17 01:45:03;;;;;;;5.97;5.37;;;24.30;42.00;;;;;;5021019;28;21141;-51
2023/06/17 01:47:30;;;;;;;5.13;4.73;;;24.30;42.20;;;;;;5030849;28;20522;-51
2023/06/17 01:50:02;;;;;;;5.63;5.23;;;24.40;41.90;;;;;;5020910;28;20474;-49
2023/06/17 01:52:28;;;;;;;7.50;5.63;;;24.50;41.50;;;;;;5031130;28;20501;-51
2023/06/17 01:54:54;;;;;;;6.03;5.53;;;24.70;41.20;;;;;;5015130;28;20958;-46
2023/06/17 01:57:20;;;;;;;5.97;5.47;;;24.80;41.10;;;;;;5028935;28;20197;-51
2023/06/17 01:59:45;;;;;;;6.43;5.83;;;24.90;40.80;;;;;;5017396;28;20189;-48
2023/06/17 02:02:11;;;;;;;6.73;6.17;;;24.90;41.00;;;;;;5012850;28;20429;-51
2023/06/17 02:04:36;;;;;;;5.80;5.30;;;25.00;40.70;;;;;;5023164;28;20810;-47
2023/06/17 02:07:02;;;;;;;7.27;6.57;;;25.00;40.70;;;;;;5012769;28;20229;-47
2023/06/17 02:09:28;;;;;;;6.67;6.17;;;24.50;41.20;;;;;;5027807;28;20560;-51
2023/06/17 02:11:54;;;;;;;6.13;5.57;;;24.30;41.90;;;;;;5021723;28;20429;-49
2023/06/17 02:14:19;;;;;;;11.70;5.83;;;24.10;42.20;;;;;;5012356;28;20194;-48
2023/06/17 02:16:46;;;;;;;7.80;6.53;;;24.00;42.60;;;;;;5030009;28;20197;-51
2023/06/17 02:19:12;;;;;;;6.40;5.87;;;23.70;42.90;;;;;;5011888;28;20204;-48
2023/06/17 02:21:38;;;;;;;6.23;5.63;;;23.60;43.20;;;;;;5022182;28;20808;-46
2023/06/17 02:24:04;;;;;;;8.63;5.60;;;23.50;43.40;;;;;;5023156;28;20193;-51
2023/06/17 02:26:31;;;;;;;6.50;5.70;;;23.80;43.00;;;;;;5013199;28;20924;-50
2023/06/17 02:28:56;;;;;;;5.23;4.83;;;23.90;42.60;;;;;;5020892;28;20492;-48
2023/06/17 02:31:22;;;;;;;7.83;5.90;;;24.10;42.10;;;;;;5023269;28;20447;-52
2023/06/17 02:33:48;;;;;;;5.30;4.90;;;24.10;41.90;;;;;;5026049;28;20210;-52
2023/06/17 02:36:14;;;;;;;7.00;6.43;;;24.10;42.30;;;;;;5025375;28;20581;-52
2023/06/17 02:38:40;;;;;;;5.87;5.37;;;24.20;42.00;;;;;;5017089;28;20196;-46
2023/06/17 02:41:06;;;;;;;6.67;6.00;;;24.30;41.70;;;;;;5027192;28;20444;-46
2023/06/17 02:43:32;;;;;;;5.80;5.30;;;23.90;42.10;;;;;;5028377;28;20443;-50
2023/06/17 02:45:57;;;;;;;6.30;5.67;;;23.70;42.30;;;;;;5029568;28;20224;-46
2023/06/17 02:48:23;;;;;;;5.60;5.10;;;23.70;42.40;;;;;;5022606;28;20229;-48
2023/06/17 02:50:51;;;;;;;6.10;5.53;;;23.60;42.70;;;;;;5027662;28;20815;-50
2023/06/17 02:53:16;;;;;;;5.80;5.30;;;23.50;43.00;;;;;;5026191;28;20675;-48
2023/06/17 02:55:45;;;;;;;6.57;5.97;;;23.40;43.10;;;;;;5027982;28;20435;-49
2023/06/17 02:58:14;;;;;;;6.30;5.80;;;23.40;43.10;;;;;;5029504;28;20193;-48
2023/06/17 03:00:40;;;;;;;6.03;5.47;;;23.30;43.20;;;;;;5027436;28;20869;-46
2023/06/17 03:03:06;;;;;;;6.77;6.10;;;23.00;43.80;;;;;;5017125;28;20448;-47
2023/06/17 03:05:32;;;;;;;6.87;6.27;;;22.50;44.60;;;;;;5028079;28;20805;-50
2023/06/17 03:07:58;;;;;;;5.70;5.20;;;22.40;45.10;;;;;;5025227;28;20496;-47
2023/06/17 03:10:23;;;;;;;6.63;6.13;;;22.40;45.20;;;;;;5026480;28;20193;-47
2023/06/17 03:12:49;;;;;;;6.37;5.77;;;22.20;45.50;;;;;;5027690;28;20200;-51
2023/06/17 03:15:17;;;;;;;6.13;5.63;;;21.90;46.30;;;;;;5029153;28;20276;-48
2023/06/17 03:17:43;;;;;;;6.37;5.80;;;21.70;46.60;;;;;;5023458;28;20622;-46
2023/06/17 03:20:09;;;;;;;6.67;6.10;;;21.30;47.60;;;;;;5027521;28;20459;-49
2023/06/17 03:22:35;;;;;;;8.10;6.33;;;21.30;47.50;;;;;;5024781;28;20825;-48
2023/06/17 03:25:01;;;;;;;7.00;6.10;;;21.50;46.90;;;;;;5022778;28;20558;-47
2023/06/17 03:27:27;;;;;;;7.03;5.90;;;21.70;46.70;;;;;;5029474;28;20209;-51
2023/06/17 03:29:53;;;;;;;6.00;5.50;;;21.70;46.50;;;;;;5028308;28;20475;-47
2023/06/17 03:32:18;;;;;;;6.27;5.67;;;21.50;47.00;;;;;;5022333;28;20473;-48
2023/06/17 03:34:44;;;;;;;6.13;5.37;;;20.70;48.40;;;;;;5025886;28;20640;-48
2023/06/17 03:37:10;;;;;;;7.30;5.90;;;20.60;49.00;;;;;;5020647;28;20205;-50
2023/06/17 03:39:36;;;;;;;6.13;5.43;;;20.90;48.40;;;;;;5024068;28;20201;-51
2023/06/17 03:42:01;;;;;;;6.27;5.73;;;21.10;48.00;;;;;;5027089;28;20974;-50
2023/06/17 03:44:27;;;;;;;6.30;5.80;;;21.20;47.70;;;;;;5021555;28;20842;-45
2023/06/17 03:46:53;;;;;;;7.43;5.97;;;21.00;48.00;;;;;;5023375;28;20189;-45
2023/06/17 03:49:19;;;;;;;6.17;5.57;;;21.10;48.10;;;;;;5023477;28;20225;-49
2023/06/17 03:51:45;;;;;;;6.70;4.90;;;21.20;48.10;;;;;;5018986;28;20460;-48
2023/06/17 03:54:11;;;;;;;7.03;6.43;;;21.00;48.20;;;;;;5028923;28;20201;-48
2023/06/17 03:56:37;;;;;;;7.67;6.37;;;20.90;48.30;;;;;;5026582;28;20445;-46
2023/06/17 03:59:02;;;;;;;6.00;5.50;;;20.80;48.60;;;;;;5022414;28;20201;-48
2023/06/17 04:01:28;;;;;;;6.20;5.70;;;20.80;48.60;;;;;;5028307;28;20973;-45
2023/06/17 04:03:53;;;;;;;6.07;5.57;;;20.70;48.70;;;;;;5027936;28;20679;-46
2023/06/17 04:06:19;;;;;;;5.90;5.40;;;20.40;49.80;;;;;;5029807;28;20833;-50
2023/06/17 04:08:46;;;;;;;6.30;5.70;;;20.30;50.10;;;;;;5028572;28;20245;-46
2023/06/17 04:11:12;;;;;;;9.00;6.17;;;20.70;49.50;;;;;;5027238;28;20648;-47
2023/06/17 04:13:37;;;;;;;6.00;5.50;;;21.00;48.70;;;;;;5028868;28;20446;-47
2023/06/17 04:16:03;;;;;;;6.93;5.73;;;21.30;48.00;;;;;;5029651;28;20204;-47
2023/06/17 04:18:29;;;;;;;6.70;6.10;;;21.40;47.80;;;;;;5028207;28;20532;-49
2023/06/17 04:20:56;;;;;;;6.00;5.50;;;21.50;47.50;;;;;;5027683;28;20201;-46
2023/06/17 04:23:24;;;;;;;6.23;5.70;;;21.60;47.20;;;;;;5025732;28;20189;-47
2023/06/17 04:25:50;;;;;;;7.10;6.50;;;21.70;47.10;;;;;;5022671;28;20485;-46
2023/06/17 04:28:17;;;;;;;6.57;6.07;;;21.70;47.00;;;;;;5026767;28;20562;-52
2023/06/17 04:30:45;;;;;;;6.43;5.80;;;21.70;46.90;;;;;;5021477;28;20455;-47
2023/06/17 04:33:12;;;;;;;5.93;4.73;;;21.70;46.90;;;;;;5025222;28;20479;-46
2023/06/17 04:35:41;;;;;;;5.43;4.50;;;21.70;47.20;;;;;;5021760;28;20823;-48
2023/06/17 04:38:11;;;;;;;6.20;5.60;;;21.80;47.50;;;;;;5027896;28;20440;-47
2023/06/17 04:40:37;;;;;;;5.80;5.20;;;22.10;46.80;;;;;;5020972;28;20950;-49
2023/06/17 04:43:03;;;;;;;6.67;5.23;;;22.50;46.10;;;;;;5025658;28;20526;-51
2023/06/17 04:45:29;;;;;;;6.80;6.30;;;22.60;46.00;;;;;;5022161;28;20436;-46
2023/06/17 04:47:56;;;;;;;4.73;4.33;;;22.80;45.30;;;;;;5019093;28;20937;-50
2023/06/17 04:50:23;;;;;;;7.60;6.47;;;22.60;45.80;;;;;;5025355;28;20506;-51
2023/06/17 04:52:51;;;;;;;6.67;6.07;;;22.80;45.40;;;;;;5030225;28;20443;-48
2023/06/17 04:55:18;;;;;;;6.70;6.10;;;22.80;45.40;;;;;;5027832;28;20790;-50
2023/06/17 04:57:44;;;;;;;6.17;5.67;;;23.00;44.90;;;;;;5014881;28;20506;-46
2023/06/17 05:00:11;;;;;;;5.47;4.97;;;23.10;44.60;;;;;;5029074;28;20443;-50
2023/06/17 05:02:40;;;;;;;5.67;5.17;;;23.20;44.50;;;;;;5031348;28;20439;-46
2023/06/17 05:05:06;;;;;;;7.70;6.43;;;23.10;44.60;;;;;;5031244;28;20498;-47
2023/06/17 05:07:33;;;;;;;7.13;6.43;;;22.80;45.00;;;;;;5026186;28;20497;-50
2023/06/17 05:10:00;;;;;;;7.13;6.53;;;22.90;45.40;;;;;;5028747;28;20444;-48
2023/06/17 05:12:26;;;;;;;7.33;5.90;;;23.20;44.90;;;;;;5032660;28;20547;-46
2023/06/17 05:14:52;;;;;;;6.50;5.63;;;23.40;44.40;;;;;;5025677;28;20450;-49
2023/06/17 05:17:17;;;;;;;8.80;7.90;;;23.50;44.10;;;;;;5021168;28;20452;-47
2023/06/17 05:19:43;;;;;;;5.83;5.23;;;23.50;44.10;;;;;;5032781;28;20607;-45
2023/06/17 05:22:09;;;;;;;8.40;5.50;;;23.00;45.00;;;;;;5031258;28;20193;-46
2023/06/17 05:24:34;;;;;;;10.10;6.90;;;22.70;45.50;;;;;;5027630;28;20193;-46
2023/06/17 05:27:00;;;;;;;8.90;6.53;;;22.80;45.40;;;;;;5029780;28;20276;-48
2023/06/17 05:29:26;;;;;;;10.17;7.83;;;22.90;45.40;;;;;;5017003;28;20264;-46
2023/06/17 05:31:51;;;;;;;8.70;7.23;;;22.70;45.30;;;;;;5014258;28;20311;-46
2023/06/17 05:34:17;;;;;;;8.20;7.30;;;22.70;45.60;;;;;;5027360;28;20280;-48
2023/06/17 05:36:43;;;;;;;10.80;6.53;;;22.50;45.70;;;;;;5023836;28;20197;-50
2023/06/17 05:39:08;;;;;;;8.23;6.13;;;22.40;45.80;;;;;;5025190;28;20205;-50
2023/06/17 05:41:34;;;;;;;6.87;6.27;;;22.40;46.30;;;;;;5029363;28;20189;-48
2023/06/17 05:43:59;;;;;;;8.43;7.10;;;22.60;45.90;;;;;;5028459;28;20208;-49
2023/06/17 05:46:25;;;;;;;7.33;6.67;;;22.90;45.70;;;;;;5030838;28;20205;-46
2023/06/17 05:48:51;;;;;;;7.33;6.60;;;23.10;45.00;;;;;;5020707;28;20230;-47
2023/06/17 05:51:17;;;;;;;7.90;7.10;;;23.20;44.90;;;;;;5029704;28;20292;-48
2023/06/17 05:53:42;;;;;;;7.27;5.83;;;23.30;44.50;;;;;;5021850;28;20198;-48
2023/06/17 05:56:11;;;;;;;7.77;6.97;;;23.20;44.20;;;;;;5020390;28;20986;-46
2023/06/17 05:58:36;;;;;;;6.57;6.07;;;22.70;45.20;;;;;;5030276;28;20197;-44
2023/06/17 06:01:02;;;;;;;7.53;6.93;;;22.40;46.50;;;;;;5022854;28;20431;-45
2023/06/17 06:03:28;;;;;;;9.03;6.27;;;22.20;46.40;;;;;;5025667;28;20197;-47
2023/06/17 06:05:53;;;;;;;10.23;7.10;;;22.20;46.80;;;;;;5028664;28;20319;-51
2023/06/17 06:08:19;;;;;;;7.40;6.80;;;22.30;47.10;;;;;;5026900;28;20253;-47
2023/06/17 06:10:45;;;;;;;7.00;6.17;;;22.80;46.00;;;;;;5030565;28;20809;-47
2023/06/17 06:13:11;;;;;;;8.10;7.30;;;22.80;45.30;;;;;;5028325;28;20479;-47
2023/06/17 06:15:36;;;;;;;7.07;6.43;;;22.80;45.00;;;;;;5025851;28;20539;-46
2023/06/17 06:18:02;;;;;;;6.90;6.20;;;22.90;45.20;;;;;;5031489;28;20548;-46
2023/06/17 06:20:28;;;;;;;8.20;7.20;;;23.20;44.90;;;;;;5018397;28;20192;-50
2023/06/17 06:22:54;;;;;;;8.00;7.20;;;23.40;44.40;;;;;;5019998;28;20198;-48
2023/06/17 06:25:20;;;;;;;7.10;6.50;;;23.70;44.20;;;;;;5028438;28;20444;-46
2023/06/17 06:27:45;;;;;;;7.73;7.00;;;23.80;43.20;;;;;;5027449;28;20234;-48
2023/06/17 06:30:12;;;;;;;8.00;7.17;;;23.50;43.60;;;;;;5030173;28;20197;-50
2023/06/17 06:32:38;;;;;;;7.90;7.10;;;23.40;43.70;;;;;;5023596;28;20213;-46
2023/06/17 06:35:04;;;;;;;8.70;6.50;;;23.30;43.70;;;;;;5025904;28;20436;-49
2023/06/17 06:37:29;;;;;;;7.90;6.87;;;23.50;43.40;;;;;;5020359;28;20197;-46
2023/06/17 06:39:55;;;;;;;6.87;6.27;;;23.70;42.80;;;;;;5022900;28;20215;-46
2023/06/17 06:42:21;;;;;;;7.27;6.60;;;24.00;42.30;;;;;;5025752;28;20193;-48
2023/06/17 06:44:48;;;;;;;8.03;7.23;;;24.30;41.90;;;;;;5024801;28;20231;-46
2023/06/17 06:47:13;;;;;;;8.00;7.30;;;24.60;41.30;;;;;;5023350;28;20189;-46
2023/06/17 06:49:39;;;;;;;7.07;6.37;;;25.00;40.60;;;;;;5027069;28;20447;-48
2023/06/17 06:52:05;;;;;;;9.50;6.77;;;25.20;40.40;;;;;;5025647;28;20205;-46
2023/06/17 06:54:30;;;;;;;10.00;8.00;;;25.40;39.90;;;;;;5030786;28;20666;-46
2023/06/17 06:56:56;;;;;;;8.83;6.80;;;25.40;39.80;;;;;;5030675;28;20205;-47
2023/06/17 06:59:22;;;;;;;7.90;7.10;;;25.80;39.20;;;;;;5031101;28;20189;-46
2023/06/17 07:01:47;;;;;;;7.20;6.60;;;26.00;39.10;;;;;;5024748;28;20268;-46
2023/06/17 07:04:13;;;;;;;8.10;6.77;;;26.10;38.30;;;;;;5030914;28;20189;-48
2023/06/17 07:06:39;;;;;;;6.93;6.33;;;26.20;38.00;;;;;;5031688;28;20185;-46
2023/06/17 07:09:05;;;;;;;12.80;7.30;;;26.40;37.60;;;;;;5029478;28;20617;-47
2023/06/17 07:11:31;;;;;;;6.60;6.00;;;26.60;38.00;;;;;;5030287;28;20435;-48
2023/06/17 07:13:56;;;;;;;7.13;6.53;;;26.70;37.30;;;;;;5020884;28;20621;-46
2023/06/17 07:16:22;;;;;;;7.47;6.67;;;26.80;37.00;;;;;;5029508;28;20194;-46
2023/06/17 07:18:47;;;;;;;7.80;6.50;;;27.00;37.10;;;;;;5031127;28;20216;-46
2023/06/17 07:21:13;;;;;;;8.67;6.90;;;27.30;36.40;;;;;;5031204;28;20559;-46
2023/06/17 07:23:38;;;;;;;7.47;6.87;;;27.50;36.10;;;;;;5029595;28;20185;-46
2023/06/17 07:26:06;;;;;;;8.47;7.33;;;27.60;35.50;;;;;;5024103;28;20227;-46
2023/06/17 07:28:32;;;;;;;7.03;6.33;;;27.20;35.60;;;;;;5010826;28;20226;-47
2023/06/17 07:30:58;;;;;;;8.30;6.97;;;27.20;36.30;;;;;;5011617;28;20614;-46
2023/06/17 07:33:25;;;;;;;8.60;6.20;;;27.40;35.80;;;;;;5016816;28;20673;-50
2023/06/17 07:35:50;;;;;;;7.77;6.80;;;27.50;35.70;;;;;;5023055;28;20202;-46
2023/06/17 07:38:16;;;;;;;10.17;6.40;;;27.80;35.30;;;;;;5010738;28;20904;-47
2023/06/17 07:40:42;;;;;;;13.10;6.83;;;28.10;35.10;;;;;;5011669;28;20193;-47
2023/06/17 07:43:09;;;;;;;8.07;7.27;;;28.30;34.90;;;;;;5022301;28;20193;-48
2023/06/17 07:45:35;;;;;;;7.63;6.83;;;28.40;35.00;;;;;;5029753;28;20228;-46
2023/06/17 07:48:00;;;;;;;7.43;6.80;;;28.70;34.50;;;;;;5017157;28;20559;-48
2023/06/17 07:50:26;;;;;;;8.13;6.60;;;28.60;34.60;;;;;;5019110;28;20189;-46
2023/06/17 07:52:52;;;;;;;9.10;6.50;;;28.90;34.10;;;;;;5016111;28;20978;-50
2023/06/17 07:55:18;;;;;;;7.03;6.30;;;29.00;32.90;;;;;;5020211;28;20255;-47
2023/06/17 07:57:44;;;;;;;7.10;6.50;;;29.10;32.50;;;;;;5018615;28;20844;-47
2023/06/17 08:00:12;;;;;;;8.07;6.70;;;29.30;32.60;;;;;;5010486;28;20228;-47
2023/06/17 08:02:42;;;;;;;7.13;6.37;;;29.50;32.10;;;;;;5016933;28;20440;-46
2023/06/17 08:05:09;;;;;;;7.13;6.50;;;29.70;31.90;;;;;;5029203;28;20447;-50
2023/06/17 08:07:35;;;;;;;7.33;6.73;;;29.80;31.70;;;;;;5030463;28;20523;-46
2023/06/17 08:10:01;;;;;;;8.13;7.10;;;30.00;31.80;;;;;;5029477;28;20437;-50
2023/06/17 08:12:26;;;;;;;8.53;6.80;;;30.20;31.60;;;;;;5029707;28;20467;-50
2023/06/17 08:14:52;;;;;;;7.30;6.60;;;30.40;32.10;;;;;;5028535;28;20205;-45
2023/06/17 08:17:18;;;;;;;8.30;6.70;;;30.60;32.40;;;;;;5010981;28;20194;-47
2023/06/17 08:19:44;;;;;;;7.70;7.00;;;30.70;32.60;;;;;;5014348;28;21008;-46
2023/06/17 08:22:10;;;;;;;6.20;5.67;;;30.80;31.50;;;;;;5014884;28;20289;-49
2023/06/17 08:24:36;;;;;;;6.93;6.33;;;30.90;30.10;;;;;;5018643;28;20660;-48
2023/06/17 08:27:02;;;;;;;10.10;6.60;;;30.90;30.10;;;;;;5028787;28;20826;-47
2023/06/17 08:29:28;;;;;;;7.03;6.33;;;30.90;30.30;;;;;;5027390;28;20495;-47
2023/06/17 08:31:54;;;;;;;7.37;6.00;;;31.10;30.80;;;;;;5029941;28;20197;-48
2023/06/17 08:34:21;;;;;;;8.50;6.17;;;31.20;30.70;;;;;;5028602;28;20320;-47
2023/06/17 08:36:52;;;;;;;8.27;6.20;;;31.50;29.80;;;;;;5029398;28;20204;-49
2023/06/17 08:39:18;;;;;;;10.47;6.50;;;31.70;30.00;;;;;;5023029;28;20452;-48
2023/06/17 08:41:45;;;;;;;8.43;5.97;;;31.90;30.20;;;;;;5021757;28;20456;-45
2023/06/17 08:44:12;;;;;;;7.63;7.00;;;32.10;29.50;;;;;;5026318;28;20943;-46
2023/06/17 08:46:38;;;;;;;6.97;6.30;;;32.20;28.80;;;;;;5026563;28;20440;-47
2023/06/17 08:49:07;;;;;;;7.73;6.23;;;32.40;28.70;;;;;;5026873;28;20488;-45
2023/06/17 08:51:33;;;;;;;6.43;5.93;;;32.60;28.90;;;;;;5025149;28;20536;-46
2023/06/17 08:54:00;;;;;;;6.73;5.93;;;32.70;28.50;;;;;;5025371;28;20444;-47
2023/06/17 08:56:26;;;;;;;11.20;8.10;;;32.90;28.00;;;;;;5023168;28;20450;-45
2023/06/17 08:58:54;;;;;;;8.00;5.70;;;33.00;28.30;;;;;;5022972;28;20444;-46
2023/06/17 09:01:24;;;;;;;8.93;6.00;;;33.00;27.40;;;;;;5029316;28;20204;-46
2023/06/17 09:03:52;;;;;;;8.63;6.20;;;33.10;26.60;;;;;;5016533;28;20448;-51
2023/06/17 09:06:20;;;;;;;16.03;6.67;;;32.90;26.50;;;;;;5017567;28;20443;-45
2023/06/17 09:08:46;;;;;;;8.97;6.53;;;33.00;26.50;;;;;;5026929;28;21006;-46
2023/06/17 09:11:12;;;;;;;6.20;5.67;;;33.10;26.40;;;;;;5024894;28;20461;-46
2023/06/17 09:13:37;;;;;;;5.53;5.13;;;33.10;25.80;;;;;;5017344;28;20811;-45
2023/06/17 09:16:03;;;;;;;6.03;5.30;;;32.90;25.00;;;;;;5020846;28;20530;-49
2023/06/17 09:18:32;;;;;;;9.87;5.73;;;32.90;25.40;;;;;;5026668;28;20645;-49
2023/06/17 09:20:58;;;;;;;6.30;5.70;;;32.90;25.50;;;;;;5026069;28;20186;-46
2023/06/17 09:23:24;;;;;;;9.83;6.50;;;33.00;25.30;;;;;;5022897;28;20988;-48
2023/06/17 09:26:01;;;;;;;6.10;5.50;;;31.90;26.70;;;;;;5023082;28;20215;-45
2023/06/17 09:28:26;;;;;;;7.00;6.30;;;32.20;27.30;;;;;;5023045;28;20307;-48
2023/06/17 09:30:53;;;;;;;6.60;5.40;;;32.60;26.80;;;;;;5022843;28;20883;-46
2023/06/17 09:33:23;;;;;;;6.73;5.53;;;33.00;27.10;;;;;;5023478;28;20202;-46
2023/06/17 09:36:04;;;;;;;5.70;5.20;;;33.40;25.20;;;;;;5028717;28;20467;-45
2023/06/17 09:38:31;;;;;;;5.60;5.10;;;33.70;24.30;;;;;;5030548;28;20444;-48
2023/06/17 09:40:58;;;;;;;8.97;5.87;;;34.10;24.10;;;;;;5031410;28;20451;-46
2023/06/17 09:43:27;;;;;;;6.40;5.33;;;34.30;24.70;;;;;;5029234;28;20448;-45
2023/06/17 09:46:02;;;;;;;5.67;4.90;;;34.20;24.50;;;;;;5028923;28;20827;-46
2023/06/17 09:48:32;;;;;;;6.17;5.67;;;34.40;24.70;;;;;;5030025;28;20518;-46
2023/06/17 09:50:58;;;;;;;7.90;6.07;;;34.60;23.20;;;;;;5028511;28;20440;-47
2023/06/17 09:53:29;;;;;;;6.63;5.93;;;34.80;23.50;;;;;;5026507;28;20491;-46
2023/06/17 09:55:57;;;;;;;7.93;5.47;;;34.90;24.60;;;;;;5029865;28;20535;-45
2023/06/17 09:58:30;;;;;;;5.80;5.00;;;35.10;23.80;;;;;;5030130;28;22311;-46
2023/06/17 10:01:05;;;;;;;19.20;7.30;;;35.30;23.70;;;;;;5031164;28;20439;-46
2023/06/17 10:03:33;;;;;;;5.77;5.27;;;35.60;22.90;;;;;;5018042;28;20839;-48
2023/06/17 10:06:12;;;;;;;9.50;5.90;;;35.70;23.10;;;;;;5032596;28;20907;-46
2023/06/17 10:08:42;;;;;;;5.33;4.97;;;35.60;21.40;;;;;;5029969;28;21003;-49
2023/06/17 10:11:12;;;;;;;5.30;4.90;;;35.70;20.90;;;;;;5031299;28;20805;-46
2023/06/17 10:13:40;;;;;;;6.53;5.87;;;35.70;21.00;;;;;;5025658;28;20555;-46
2023/06/17 10:16:12;;;;;;;8.43;5.90;;;35.90;21.80;;;;;;5027383;28;20782;-51
2023/06/17 10:18:41;;;;;;;6.13;5.73;;;35.90;22.60;;;;;;5026460;28;20523;-46
2023/06/17 10:21:10;;;;;;;5.20;4.80;;;36.10;22.90;;;;;;5031673;28;20926;-46
2023/06/17 10:23:37;;;;;;;5.63;5.20;;;36.20;22.90;;;;;;5026102;28;20451;-50
2023/06/17 10:26:07;;;;;;;6.23;5.70;;;36.30;22.10;;;;;;5030206;28;20541;-49
2023/06/17 10:29:07;;;;;;;6.13;5.40;;;36.40;22.10;;;;;;5028431;28;20616;-48
2023/06/17 10:31:38;;;;;;;6.00;5.40;;;36.70;22.40;;;;;;5028692;28;20530;-49
2023/06/17 10:34:05;;;;;;;6.20;5.80;;;36.80;21.30;;;;;;5022353;28;20456;-50
2023/06/17 10:36:33;;;;;;;5.87;5.27;;;37.00;21.40;;;;;;5031548;28;20462;-47
2023/06/17 10:39:12;;;;;;;7.40;5.97;;;37.00;21.40;;;;;;5027098;28;20443;-47
2023/06/17 10:41:37;;;;;;;7.87;6.30;;;36.90;20.90;;;;;;5030824;28;20450;-47
2023/06/17 10:44:44;;;;;;;6.40;5.80;;;36.90;21.20;;;;;;5026454;28;20447;-48
2023/06/17 10:47:18;;;;;;;20.50;6.83;;;36.50;21.00;;;;;;5026603;28;20211;-47
2023/06/17 10:49:45;;;;;;;5.30;4.90;;;36.40;21.40;;;;;;5022364;28;20452;-46
2023/06/17 10:52:14;;;;;;;6.03;5.63;;;36.20;21.10;;;;;;5012210;28;20424;-48
2023/06/17 10:54:58;;;;;;;6.10;5.60;;;36.20;21.30;;;;;;5011616;28;20433;-47
2023/06/17 10:57:34;;;;;;;7.40;6.90;;;36.30;21.50;;;;;;5026367;28;20773;-47
2023/06/17 11:00:11;;;;;;;6.57;5.33;;;36.20;21.60;;;;;;5028229;28;20431;-49
2023/06/17 11:02:38;;;;;;;5.67;5.20;;;36.20;21.40;;;;;;5026214;28;20919;-46
2023/06/17 11:05:05;;;;;;;6.27;5.63;;;36.30;22.30;;;;;;5031543;28;20423;-45
2023/06/17 11:07:31;;;;;;;8.80;5.97;;;36.30;21.20;;;;;;5015959;28;20510;-47
2023/06/17 11:09:56;;;;;;;5.73;5.10;;;36.40;21.00;;;;;;5027433;28;20467;-46
2023/06/17 11:12:22;;;;;;;5.57;5.17;;;36.20;21.40;;;;;;5023723;28;20186;-47
2023/06/17 11:14:47;;;;;;;6.57;5.97;;;36.50;22.00;;;;;;5027901;28;20193;-49
2023/06/17 11:17:13;;;;;;;5.97;5.47;;;36.70;21.40;;;;;;5022203;28;20296;-48
2023/06/17 11:19:38;;;;;;;6.73;5.97;;;36.80;20.80;;;;;;5019115;28;20278;-48
2023/06/17 11:22:05;;;;;;;6.90;5.43;;;36.80;20.50;;;;;;5024795;28;20189;-46
2023/06/17 11:24:32;;;;;;;5.77;5.27;;;36.80;20.70;;;;;;5025025;28;20677;-49
2023/06/17 11:26:58;;;;;;;6.00;5.40;;;37.00;20.70;;;;;;5023951;28;20505;-47
2023/06/17 11:29:26;;;;;;;5.37;4.97;;;36.90;20.00;;;;;;5020932;28;20499;-49
2023/06/17 11:31:51;;;;;;;11.77;6.17;;;36.90;20.10;;;;;;5016543;28;20448;-52
2023/06/17 11:34:17;;;;;;;7.00;6.30;;;37.00;20.00;;;;;;5019913;28;20514;-49
2023/06/17 11:36:43;;;;;;;7.80;5.40;;;37.00;20.10;;;;;;5022849;28;20271;-47
2023/06/17 11:39:12;;;;;;;54.00;8.57;;;37.20;21.10;;;;;;5011214;28;20248;-48
2023/06/17 11:41:38;;;;;;;6.70;5.73;;;37.20;21.40;;;;;;5025005;28;20200;-47
2023/06/17 11:44:04;;;;;;;5.90;5.50;;;37.40;20.40;;;;;;5026351;28;20810;-47
2023/06/17 11:46:30;;;;;;;8.07;5.50;;;37.60;20.00;;;;;;5027630;28;20189;-49
2023/06/17 11:48:56;;;;;;;15.70;6.57;;;37.50;20.80;;;;;;5029343;28;20225;-47
2023/06/17 11:51:22;;;;;;;5.63;5.23;;;36.90;20.40;;;;;;5025619;28;20188;-50
2023/06/17 11:53:49;;;;;;;10.63;6.30;;;36.80;20.70;;;;;;5022658;28;20520;-46
2023/06/17 11:56:17;;;;;;;13.77;6.50;;;36.40;21.20;;;;;;5028187;28;20435;-50
2023/06/17 11:58:44;;;;;;;14.60;6.30;;;36.60;21.90;;;;;;5027511;28;20450;-47
2023/06/17 12:01:13;;;;;;;7.40;6.80;;;36.60;21.30;;;;;;5026352;28;20435;-47
2023/06/17 12:03:44;;;;;;;8.20;6.00;;;36.80;21.00;;;;;;5028763;28;20439;-48
2023/06/17 12:06:17;;;;;;;6.47;5.87;;;37.10;20.90;;;;;;5018606;28;20958;-53
2023/06/17 12:08:43;;;;;;;6.03;5.50;;;37.40;20.70;;;;;;5018555;28;20491;-47
2023/06/17 12:11:29;;;;;;;5.90;5.50;;;37.20;20.80;;;;;;5019383;28;20462;-48
2023/06/17 12:13:55;;;;;;;8.10;5.70;;;37.00;20.20;;;;;;5024094;28;20224;-47
2023/06/17 12:16:24;;;;;;;6.00;5.50;;;36.90;20.30;;;;;;5018124;28;20451;-50
2023/06/17 12:18:51;;;;;;;5.33;4.93;;;36.60;20.30;;;;;;5022781;28;20458;-52
2023/06/17 12:21:19;;;;;;;7.00;6.07;;;36.50;20.00;;;;;;5021961;28;20461;-52
2023/06/17 12:23:45;;;;;;;8.50;5.53;;;36.60;20.30;;;;;;5020075;28;20446;-53
2023/06/17 12:26:11;;;;;;;6.37;5.87;;;36.90;20.00;;;;;;5019693;28;20456;-49
2023/06/17 12:28:37;;;;;;;8.30;6.33;;;37.10;20.10;;;;;;5010137;28;20228;-51
2023/06/17 12:31:02;;;;;;;7.67;5.67;;;37.40;20.20;;;;;;5024296;28;20246;-51
2023/06/17 12:33:28;;;;;;;6.47;5.90;;;36.90;20.00;;;;;;5022952;28;20816;-52
2023/06/17 12:35:54;;;;;;;6.10;5.50;;;36.70;21.30;;;;;;5023660;28;20207;-49
2023/06/17 12:38:23;;;;;;;25.63;6.70;;;36.90;20.70;;;;;;5024676;28;20243;-52
2023/06/17 12:40:50;;;;;;;67.30;10.93;;;36.90;21.20;;;;;;5028732;28;20220;-50
2023/06/17 12:43:15;;;;;;;52.63;13.00;;;36.90;21.40;;;;;;5027216;28;20482;-50
2023/06/17 12:45:42;;;;;;;5.60;5.10;;;37.00;21.40;;;;;;5030348;28;20781;-52